createdAt,value
2022-12-07T00:01:08.510Z,6.82
2022-12-07T00:03:36.983Z,6.75
2022-12-07T00:06:06.488Z,6.78
2022-12-07T00:08:35.288Z,6.80
2022-12-07T00:11:04.841Z,6.76
2022-12-07T00:13:32.557Z,6.78
2022-12-07T00:16:03.681Z,6.81
2022-12-07T00:18:33.129Z,6.81
2022-12-07T00:21:02.704Z,6.79
2022-12-07T00:23:30.574Z,6.83
2022-12-07T00:26:04.683Z,6.74
2022-12-07T00:28:32.484Z,6.84
2022-12-07T00:31:02.980Z,6.87
2022-12-07T00:33:32.147Z,6.69
2022-12-07T00:36:00.581Z,6.66
2022-12-07T00:38:30.691Z,6.80
2022-12-07T00:40:58.998Z,6.87
2022-12-07T00:43:27.108Z,6.88
2022-12-07T00:45:55.646Z,6.87
2022-12-07T00:48:24.121Z,6.85
2022-12-07T00:50:53.382Z,6.88
2022-12-07T00:53:21.358Z,6.88
2022-12-07T00:55:49.489Z,6.89
2022-12-07T00:58:17.431Z,6.83
2022-12-07T01:00:45.672Z,6.89
2022-12-07T01:03:15.771Z,6.83
2022-12-07T01:05:51.472Z,6.87
2022-12-07T01:08:20.812Z,6.83
2022-12-07T01:10:48.733Z,6.85
2022-12-07T01:13:16.825Z,6.86
2022-12-07T01:15:46.279Z,6.79
2022-12-07T01:18:14.083Z,6.77
2022-12-07T01:20:41.798Z,6.83
2022-12-07T01:23:10.129Z,6.71
2022-12-07T01:25:39.308Z,6.86
2022-12-07T01:28:07.109Z,6.82
2022-12-07T01:30:34.961Z,6.84
2022-12-07T01:33:02.708Z,6.88
2022-12-07T01:35:30.431Z,6.87
2022-12-07T01:37:58.166Z,6.85
2022-12-07T01:40:25.957Z,6.86
2022-12-07T01:42:55.010Z,6.83
2022-12-07T01:45:40.928Z,6.86
2022-12-07T01:48:12.698Z,6.88
2022-12-07T01:50:41.752Z,6.88
2022-12-07T01:53:12.130Z,6.82
2022-12-07T01:55:44.454Z,6.88
2022-12-07T01:58:15.189Z,6.86
2022-12-07T02:00:43.573Z,6.87
2022-12-07T02:03:17.428Z,6.88
2022-12-07T02:05:46.213Z,6.82
2022-12-07T02:08:14.812Z,6.72
2022-12-07T02:10:42.811Z,6.82
2022-12-07T02:13:15.129Z,6.88
2022-12-07T02:16:05.957Z,6.85
2022-12-07T02:18:46.736Z,6.83
2022-12-07T02:21:21.929Z,6.82
2022-12-07T02:24:16.312Z,6.86
2022-12-07T02:27:16.693Z,6.74
2022-12-07T02:29:51.825Z,6.77
2022-12-07T02:32:25.373Z,6.85
2022-12-07T02:35:00.353Z,6.89
2022-12-07T02:37:38.483Z,6.89
2022-12-07T02:40:11.076Z,6.91
2022-12-07T02:42:43.147Z,6.83
2022-12-07T02:45:15.897Z,6.84
2022-12-07T02:47:45.343Z,6.84
2022-12-07T02:50:13.499Z,6.82
2022-12-07T02:52:41.230Z,6.85
2022-12-07T02:55:10.951Z,6.90
2022-12-07T02:57:54.373Z,6.87
2022-12-07T03:00:23.800Z,6.87
2022-12-07T03:03:00.651Z,6.85
2022-12-07T03:05:46.235Z,6.81
2022-12-07T03:08:19.474Z,6.80
2022-12-07T03:10:56.129Z,6.92
2022-12-07T03:13:30.425Z,6.85
2022-12-07T03:16:05.350Z,6.84
2022-12-07T03:18:37.772Z,6.89
2022-12-07T03:21:11.906Z,6.80
2022-12-07T03:23:42.825Z,6.69
2022-12-07T03:26:14.336Z,6.70
2022-12-07T03:28:45.962Z,6.72
2022-12-07T03:31:19.198Z,6.88
2022-12-07T03:33:54.358Z,6.84
2022-12-07T03:36:28.493Z,6.92
2022-12-07T03:39:03.129Z,6.91
2022-12-07T03:41:33.232Z,6.87
2022-12-07T03:44:01.461Z,6.87
2022-12-07T03:46:38.808Z,6.89
2022-12-07T03:49:13.753Z,6.90
2022-12-07T03:51:48.258Z,6.92
2022-12-07T03:54:20.725Z,6.92
2022-12-07T03:56:50.748Z,6.83
2022-12-07T03:59:19.660Z,6.92
2022-12-07T04:01:55.037Z,6.90
2022-12-07T04:04:23.263Z,6.88
2022-12-07T04:06:51.087Z,6.92
2022-12-07T04:09:19.228Z,6.92
2022-12-07T04:11:46.953Z,6.89
2022-12-07T04:14:20.804Z,6.90
2022-12-07T04:16:51.337Z,6.91
2022-12-07T04:19:20.812Z,6.93
2022-12-07T04:21:49.132Z,6.95
2022-12-07T04:24:17.888Z,6.92
2022-12-07T04:26:46.405Z,6.94
2022-12-07T04:29:15.200Z,6.95
2022-12-07T04:31:43.058Z,6.90
2022-12-07T04:34:12.938Z,6.94
2022-12-07T04:36:41.729Z,6.96
2022-12-07T04:39:10.756Z,6.93
2022-12-07T04:41:38.544Z,6.93
2022-12-07T04:44:08.353Z,6.92
2022-12-07T04:46:36.176Z,6.95
2022-12-07T04:49:04.043Z,6.96
2022-12-07T04:51:33.094Z,6.97
2022-12-07T04:54:00.841Z,7.00
2022-12-07T04:56:28.586Z,6.97
2022-12-07T04:58:56.818Z,6.89
2022-12-07T05:01:25.359Z,6.94
2022-12-07T05:03:53.246Z,6.95
2022-12-07T05:06:21.282Z,6.93
2022-12-07T05:08:50.575Z,6.91
2022-12-07T05:11:32.221Z,6.88
2022-12-07T05:14:00.050Z,6.87
2022-12-07T05:16:28.269Z,6.69
2022-12-07T05:18:56.248Z,6.89
2022-12-07T05:21:24.170Z,6.87
2022-12-07T05:23:53.588Z,6.88
2022-12-07T05:26:21.396Z,6.86
2022-12-07T05:28:52.973Z,6.86
2022-12-07T05:31:21.160Z,6.86
2022-12-07T05:33:49.136Z,6.88
2022-12-07T05:36:17.065Z,6.85
2022-12-07T05:38:44.872Z,6.83
2022-12-07T05:41:31.138Z,6.79
2022-12-07T05:43:58.940Z,6.78
2022-12-07T05:46:26.704Z,6.82
2022-12-07T05:48:54.482Z,6.83
2022-12-07T05:51:22.513Z,6.83
2022-12-07T05:53:50.301Z,6.79
2022-12-07T05:56:19.531Z,6.79
2022-12-07T05:59:04.777Z,6.79
2022-12-07T06:01:32.716Z,6.72
2022-12-07T06:04:00.485Z,6.81
2022-12-07T06:06:28.256Z,6.71
2022-12-07T06:08:56.122Z,6.77
2022-12-07T06:11:42.736Z,6.78
2022-12-07T06:14:10.513Z,6.76
2022-12-07T06:16:38.361Z,6.70
2022-12-07T06:19:06.156Z,6.67
2022-12-07T06:21:33.873Z,6.65
2022-12-07T06:24:01.603Z,6.67
2022-12-07T06:26:30.807Z,6.65
2022-12-07T06:28:58.657Z,6.66
2022-12-07T06:31:26.523Z,6.66
2022-12-07T06:33:59.499Z,6.64
2022-12-07T06:36:27.522Z,6.55
2022-12-07T06:38:55.782Z,6.56
2022-12-07T06:41:23.732Z,6.70
2022-12-07T06:43:56.232Z,6.74
2022-12-07T06:46:25.124Z,6.74
2022-12-07T06:48:52.822Z,6.74
2022-12-07T06:51:20.541Z,6.72
2022-12-07T06:53:48.269Z,6.68
2022-12-07T06:56:16.140Z,6.68
2022-12-07T06:58:43.844Z,6.61
2022-12-07T07:01:15.254Z,6.60
2022-12-07T07:03:43.267Z,6.54
2022-12-07T07:06:11.285Z,6.63
2022-12-07T07:08:39.938Z,6.65
2022-12-07T07:11:09.044Z,6.64
2022-12-07T07:13:37.118Z,6.54
2022-12-07T07:16:05.147Z,6.63
2022-12-07T07:18:34.235Z,6.66
2022-12-07T07:21:02.036Z,6.69
2022-12-07T07:23:30.170Z,6.69
2022-12-07T07:25:58.071Z,6.67
2022-12-07T07:28:25.963Z,6.68
2022-12-07T07:30:53.736Z,6.66
2022-12-07T07:33:21.596Z,6.70
2022-12-07T07:35:50.725Z,6.68
2022-12-07T07:38:18.405Z,6.69
2022-12-07T07:40:46.189Z,6.69
2022-12-07T07:43:13.895Z,6.69
2022-12-07T07:45:41.721Z,6.68
2022-12-07T07:48:09.547Z,6.59
2022-12-07T07:50:37.304Z,6.68
2022-12-07T07:53:06.325Z,6.69
2022-12-07T07:55:34.063Z,6.72
2022-12-07T07:58:01.885Z,6.67
2022-12-07T08:00:29.598Z,6.75
2022-12-07T08:02:57.338Z,6.76
2022-12-07T08:05:25.050Z,6.74
2022-12-07T08:07:52.765Z,6.77
2022-12-07T08:10:21.915Z,6.78
2022-12-07T08:13:07.359Z,6.80
2022-12-07T08:15:35.110Z,6.72
2022-12-07T08:18:02.864Z,6.74
2022-12-07T08:20:32.972Z,6.73
2022-12-07T08:23:00.825Z,6.75
2022-12-07T08:25:30.256Z,6.74
2022-12-07T08:27:57.979Z,6.70
2022-12-07T08:30:26.153Z,6.71
2022-12-07T08:32:54.011Z,6.74
2022-12-07T08:35:22.031Z,6.77
2022-12-07T08:37:49.745Z,6.78
2022-12-07T08:40:19.805Z,6.80
2022-12-07T08:42:52.168Z,6.87
2022-12-07T08:45:26.678Z,6.90
2022-12-07T08:47:59.388Z,6.89
2022-12-07T08:50:27.236Z,6.84
2022-12-07T08:52:59.048Z,6.67
2022-12-07T08:55:27.102Z,6.85
2022-12-07T08:57:56.831Z,6.86
2022-12-07T09:00:24.771Z,6.92
2022-12-07T09:02:52.507Z,6.95
2022-12-07T09:05:20.466Z,6.98
2022-12-07T09:07:52.849Z,6.98
2022-12-07T09:10:20.929Z,6.99
2022-12-07T09:12:48.741Z,6.97
2022-12-07T09:15:17.910Z,6.99
2022-12-07T09:17:45.694Z,7.03
2022-12-07T09:20:14.021Z,6.98
2022-12-07T09:22:41.785Z,6.99
2022-12-07T09:25:09.914Z,6.94
2022-12-07T09:27:37.633Z,6.95
2022-12-07T09:30:06.647Z,6.98
2022-12-07T09:32:35.861Z,6.95
2022-12-07T09:35:03.666Z,6.95
2022-12-07T09:37:32.753Z,6.96
2022-12-07T09:40:00.487Z,6.98
2022-12-07T09:42:31.733Z,6.92
2022-12-07T09:45:00.956Z,7.06
2022-12-07T09:47:30.020Z,7.03
2022-12-07T09:50:05.269Z,7.17
2022-12-07T09:52:38.708Z,7.17
2022-12-07T09:55:13.623Z,7.18
2022-12-07T09:57:42.665Z,7.06
2022-12-07T10:00:16.555Z,7.20
2022-12-07T10:02:46.910Z,7.23
2022-12-07T10:05:24.091Z,7.27
2022-12-07T10:07:52.570Z,7.22
2022-12-07T10:10:25.850Z,7.29
2022-12-07T10:13:00.521Z,7.21
2022-12-07T10:15:47.342Z,7.31
2022-12-07T10:18:21.135Z,7.34
2022-12-07T10:20:50.579Z,7.34
2022-12-07T10:23:19.829Z,7.30
2022-12-07T10:25:49.185Z,7.28
2022-12-07T10:28:18.893Z,7.34
2022-12-07T10:30:58.666Z,7.36
2022-12-07T10:33:37.439Z,7.36
2022-12-07T10:36:21.869Z,7.41
2022-12-07T10:38:51.881Z,7.43
2022-12-07T10:41:20.008Z,7.47
2022-12-07T10:43:56.154Z,7.39
2022-12-07T10:46:49.528Z,7.47
2022-12-07T10:49:50.328Z,7.48
2022-12-07T10:52:32.243Z,7.50
2022-12-07T10:55:16.430Z,7.47
2022-12-07T10:57:53.798Z,7.49
2022-12-07T11:00:24.320Z,7.48
2022-12-07T11:03:19.932Z,7.47
2022-12-07T11:05:56.112Z,7.39
2022-12-07T11:08:41.549Z,7.47
2022-12-07T11:11:15.058Z,7.49
2022-12-07T11:13:50.156Z,7.55
2022-12-07T11:16:32.522Z,7.57
2022-12-07T11:19:31.070Z,7.48
2022-12-07T11:22:00.860Z,7.56
2022-12-07T11:24:38.244Z,7.57
2022-12-07T11:27:16.765Z,7.57
2022-12-07T11:30:04.294Z,7.53
2022-12-07T11:32:51.570Z,7.49
2022-12-07T11:35:33.103Z,7.55
2022-12-07T11:38:09.755Z,7.51
2022-12-07T11:40:40.837Z,7.56
2022-12-07T11:43:18.452Z,7.55
2022-12-07T11:45:52.877Z,7.73
2022-12-07T11:48:30.623Z,7.82
2022-12-07T11:51:01.282Z,7.88
2022-12-07T11:53:35.855Z,7.96
2022-12-07T11:56:10.496Z,7.94
2022-12-07T11:58:48.386Z,7.83
2022-12-07T12:01:41.351Z,7.84
2022-12-07T12:04:25.473Z,7.88
2022-12-07T12:06:54.053Z,7.85
2022-12-07T12:09:46.702Z,7.97
2022-12-07T12:15:36.809Z,8.12
2022-12-07T12:18:21.562Z,8.06
2022-12-07T12:20:52.348Z,8.07
2022-12-07T12:23:24.355Z,8.06
2022-12-07T12:25:55.198Z,8.07
2022-12-07T12:28:29.409Z,7.95
2022-12-07T12:31:09.675Z,7.94
2022-12-07T12:33:39.615Z,7.98
2022-12-07T12:36:22.074Z,8.07
2022-12-07T12:38:51.601Z,8.07
2022-12-07T12:42:10.261Z,7.99
2022-12-07T12:45:04.277Z,7.98
2022-12-07T12:47:44.765Z,8.01
2022-12-07T12:50:28.297Z,8.01
2022-12-07T12:53:16.199Z,8.05
2022-12-07T12:56:22.289Z,8.08
2022-12-07T12:58:50.180Z,8.08
2022-12-07T13:01:42.785Z,8.08
2022-12-07T13:04:28.427Z,8.12
2022-12-07T13:06:56.246Z,8.14
2022-12-07T13:09:27.898Z,8.13
2022-12-07T13:12:03.024Z,8.25
2022-12-07T13:14:59.622Z,8.33
2022-12-07T13:18:24.156Z,8.32
2022-12-07T13:20:54.998Z,8.20
2022-12-07T13:23:26.939Z,8.16
2022-12-07T13:26:16.947Z,8.06
2022-12-07T13:28:48.111Z,7.99
2022-12-07T13:31:22.135Z,7.86
2022-12-07T13:33:51.264Z,7.89
2022-12-07T13:36:23.806Z,7.76
2022-12-07T13:38:54.842Z,7.81
2022-12-07T13:41:24.105Z,7.74
2022-12-07T13:43:55.249Z,7.74
2022-12-07T13:46:32.995Z,7.76
2022-12-07T13:49:02.234Z,7.67
2022-12-07T13:51:30.651Z,7.65
2022-12-07T13:54:03.495Z,7.64
2022-12-07T13:56:35.398Z,7.71
2022-12-07T13:59:03.542Z,7.66
2022-12-07T14:01:33.805Z,7.65
2022-12-07T14:04:21.074Z,7.67
2022-12-07T14:06:51.553Z,7.66
2022-12-07T14:09:22.118Z,7.66
2022-12-07T14:11:51.563Z,7.65
2022-12-07T14:14:21.977Z,7.65
2022-12-07T14:17:01.645Z,7.65
2022-12-07T14:19:52.436Z,7.63
2022-12-07T14:22:31.822Z,7.66
2022-12-07T14:25:21.565Z,7.70
2022-12-07T14:27:56.921Z,7.63
2022-12-07T14:30:26.938Z,7.66
2022-12-07T14:32:58.302Z,7.69
2022-12-07T14:35:27.827Z,7.65
2022-12-07T14:37:55.557Z,7.62
2022-12-07T14:40:25.470Z,7.67
2022-12-07T14:42:56.775Z,7.70
2022-12-07T14:45:25.326Z,7.69
2022-12-07T14:53:37.596Z,7.65
2022-12-07T14:56:07.023Z,7.67
2022-12-07T14:58:34.953Z,7.66
2022-12-07T15:01:03.093Z,7.67
2022-12-07T15:03:31.757Z,7.67
2022-12-07T15:06:01.004Z,7.69
2022-12-07T15:08:29.600Z,7.70
2022-12-07T15:10:57.342Z,7.67
2022-12-07T15:13:44.951Z,7.70
2022-12-07T15:16:16.538Z,7.68
2022-12-07T15:18:53.191Z,7.65
2022-12-07T15:21:33.470Z,7.61
2022-12-07T15:24:01.171Z,7.54
2022-12-07T15:26:28.903Z,7.51
2022-12-07T15:28:56.866Z,7.30
2022-12-07T15:31:54.108Z,7.35
2022-12-07T15:34:14.144Z,7.31
2022-12-07T15:36:47.968Z,7.07
2022-12-07T15:39:16.808Z,7.24
2022-12-07T15:41:44.697Z,7.25
2022-12-07T15:44:31.514Z,7.20
2022-12-07T15:46:59.539Z,7.13
2022-12-07T15:49:29.753Z,7.12
2022-12-07T15:51:59.192Z,7.13
2022-12-07T15:54:30.821Z,7.03
2022-12-07T15:57:00.293Z,7.10
2022-12-07T15:59:29.492Z,7.09
2022-12-07T16:01:57.931Z,7.13
2022-12-07T16:04:26.251Z,7.12
2022-12-07T16:06:54.469Z,7.06
2022-12-07T16:09:23.718Z,7.10
2022-12-07T16:11:53.085Z,7.10
2022-12-07T16:14:20.937Z,7.11
2022-12-07T16:16:49.085Z,7.12
2022-12-07T16:19:25.476Z,7.15
2022-12-07T16:21:56.131Z,7.14
2022-12-07T16:24:31.945Z,7.13
2022-12-07T16:27:01.862Z,7.16
2022-12-07T16:29:29.604Z,6.93
2022-12-07T16:31:57.624Z,6.92
2022-12-07T16:34:25.471Z,7.08
2022-12-07T16:37:08.490Z,7.06
2022-12-07T16:39:38.594Z,7.05
2022-12-07T16:42:06.556Z,7.07
2022-12-07T16:44:34.271Z,7.12
2022-12-07T16:47:02.554Z,7.06
2022-12-07T16:49:30.644Z,7.13
2022-12-07T16:52:18.696Z,7.09
2022-12-07T16:54:47.469Z,7.09
2022-12-07T16:57:20.183Z,7.09
2022-12-07T16:59:49.614Z,7.11
2022-12-07T17:02:17.321Z,7.15
2022-12-07T17:04:45.106Z,7.17
2022-12-07T17:07:13.289Z,7.05
2022-12-07T17:09:41.119Z,7.17
2022-12-07T17:12:10.197Z,7.16
2022-12-07T17:14:55.301Z,7.15
2022-12-07T17:17:23.016Z,7.18
2022-12-07T17:19:50.815Z,7.13
2022-12-07T17:22:18.542Z,7.17
2022-12-07T17:24:46.238Z,7.16
2022-12-07T17:27:15.346Z,7.15
2022-12-07T17:29:43.073Z,7.18
2022-12-07T17:32:10.988Z,7.16
2022-12-07T17:34:38.852Z,7.12
2022-12-07T17:37:06.682Z,7.09
2022-12-07T17:39:35.291Z,7.10
2022-12-07T17:42:23.005Z,7.07
2022-12-07T17:44:52.051Z,7.10
2022-12-07T17:47:21.587Z,7.11
2022-12-07T17:49:49.373Z,7.14
2022-12-07T17:52:34.812Z,7.11
2022-12-07T17:55:02.924Z,7.07
2022-12-07T17:57:31.564Z,7.03
2022-12-07T18:00:00.843Z,7.04
2022-12-07T18:02:28.579Z,7.06
2022-12-07T18:04:56.371Z,7.09
2022-12-07T18:07:24.564Z,7.10
2022-12-07T18:09:52.333Z,7.11
2022-12-07T18:12:20.059Z,7.06
2022-12-07T18:14:48.992Z,7.06
2022-12-07T18:17:18.075Z,7.07
2022-12-07T18:19:45.934Z,7.05
2022-12-07T18:22:13.714Z,7.06
2022-12-07T18:24:41.450Z,7.12
2022-12-07T18:27:09.176Z,7.04
2022-12-07T18:29:37.092Z,6.98
2022-12-07T18:32:06.074Z,7.04
2022-12-07T18:34:35.247Z,7.08
2022-12-07T18:37:02.998Z,7.07
2022-12-07T18:39:33.926Z,7.10
2022-12-07T18:42:02.223Z,7.13
2022-12-07T18:44:30.137Z,7.04
2022-12-07T18:47:00.557Z,7.01
2022-12-07T18:49:28.311Z,6.98
2022-12-07T18:51:57.379Z,6.96
2022-12-07T18:54:25.285Z,6.98
2022-12-07T18:56:57.370Z,6.96
2022-12-07T18:59:42.723Z,6.98
2022-12-07T19:02:11.766Z,6.95
2022-12-07T19:04:39.538Z,6.96
2022-12-07T19:07:08.642Z,6.95
2022-12-07T19:09:36.586Z,6.98
2022-12-07T19:12:05.500Z,6.98
2022-12-07T19:14:35.999Z,6.93
2022-12-07T19:17:06.828Z,6.93
2022-12-07T19:19:37.429Z,6.95
2022-12-07T19:22:08.275Z,6.94
2022-12-07T19:24:39.188Z,6.93
2022-12-07T19:27:08.798Z,6.96
2022-12-07T19:29:38.410Z,6.92
2022-12-07T19:32:08.927Z,6.96
2022-12-07T19:34:37.170Z,6.92
2022-12-07T19:37:05.488Z,6.95
2022-12-07T19:39:34.892Z,6.93
2022-12-07T19:42:02.885Z,6.96
2022-12-07T19:44:34.317Z,6.96
2022-12-07T19:47:05.262Z,6.97
2022-12-07T19:49:35.106Z,6.96
2022-12-07T19:52:06.048Z,6.88
2022-12-07T19:54:36.027Z,6.93
2022-12-07T19:57:05.553Z,6.94
2022-12-07T19:59:33.821Z,6.92
2022-12-07T20:02:01.546Z,6.90
2022-12-07T20:04:32.405Z,6.89
2022-12-07T20:07:01.421Z,6.90
2022-12-07T20:09:29.490Z,6.89
2022-12-07T20:12:15.876Z,6.87
2022-12-07T20:14:43.694Z,6.87
2022-12-07T20:17:11.760Z,6.81
2022-12-07T20:19:40.241Z,6.79
2022-12-07T20:22:08.322Z,6.74
2022-12-07T20:24:36.424Z,6.76
2022-12-07T20:27:06.500Z,6.75
2022-12-07T20:29:34.560Z,6.74
2022-12-07T20:32:02.399Z,6.76
2022-12-07T20:34:30.310Z,6.74
2022-12-07T20:36:58.311Z,6.73
2022-12-07T20:39:26.274Z,6.69
2022-12-07T20:42:11.659Z,6.69
2022-12-07T20:44:40.971Z,6.70
2022-12-07T20:47:08.717Z,6.68
2022-12-07T20:49:36.416Z,6.73
2022-12-07T20:52:04.845Z,6.69
2022-12-07T20:54:32.588Z,6.69
2022-12-07T20:57:00.346Z,6.72
2022-12-07T20:59:28.086Z,6.71
2022-12-07T21:01:57.196Z,6.72
2022-12-07T21:04:25.034Z,6.69
2022-12-07T21:06:52.747Z,6.72
2022-12-07T21:09:26.484Z,6.70
2022-12-07T21:11:54.794Z,6.73
2022-12-07T21:14:22.643Z,6.65
2022-12-07T21:16:51.181Z,6.70
2022-12-07T21:19:20.308Z,6.70
2022-12-07T21:21:48.144Z,6.61
2022-12-07T21:24:15.938Z,6.57
2022-12-07T21:26:43.633Z,6.58
2022-12-07T21:29:11.393Z,6.61
2022-12-07T21:31:39.135Z,6.61
2022-12-07T21:34:07.341Z,6.54
2022-12-07T21:36:36.795Z,6.52
2022-12-07T21:39:05.669Z,6.52
2022-12-07T21:41:35.545Z,6.57
2022-12-07T21:44:06.445Z,6.57
2022-12-07T21:46:34.913Z,6.60
2022-12-07T21:49:05.192Z,6.57
2022-12-07T21:51:33.314Z,6.54
2022-12-07T21:54:03.748Z,6.54
2022-12-07T21:56:33.455Z,6.59
2022-12-07T21:59:02.934Z,6.59
2022-12-07T22:01:35.591Z,6.51
2022-12-07T22:04:05.300Z,6.56
2022-12-07T22:06:34.509Z,6.54
2022-12-07T22:09:04.933Z,6.55
2022-12-07T22:11:32.621Z,6.54
2022-12-07T22:14:18.124Z,6.57
2022-12-07T22:16:45.834Z,6.56
2022-12-07T22:19:13.988Z,6.56
2022-12-07T22:21:41.699Z,6.53
2022-12-07T22:24:12.966Z,6.49
2022-12-07T22:26:40.747Z,6.50
2022-12-07T22:29:08.501Z,6.54
2022-12-07T22:31:37.990Z,6.49
2022-12-07T22:34:05.884Z,6.53
2022-12-07T22:36:33.633Z,6.52
2022-12-07T22:39:02.491Z,6.49
2022-12-07T22:41:33.185Z,6.54
2022-12-07T22:44:01.592Z,6.57
2022-12-07T22:46:29.668Z,6.56
2022-12-07T22:48:57.381Z,6.56
2022-12-07T22:51:27.087Z,6.53
2022-12-07T22:53:55.334Z,6.51
2022-12-07T22:56:23.475Z,6.55
2022-12-07T22:58:52.976Z,6.41
2022-12-07T23:01:22.446Z,6.45
2022-12-07T23:03:50.991Z,6.50
2022-12-07T23:06:20.924Z,6.54
2022-12-07T23:08:49.100Z,6.51
2022-12-07T23:11:38.807Z,6.55
2022-12-07T23:14:13.012Z,6.44
2022-12-07T23:16:41.609Z,6.54
2022-12-07T23:19:09.393Z,6.52
2022-12-07T23:21:37.221Z,6.54
2022-12-07T23:27:02.044Z,6.49
2022-12-07T23:29:31.147Z,6.48
2022-12-07T23:31:58.986Z,6.42
2022-12-07T23:34:26.827Z,6.40
2022-12-07T23:36:54.587Z,6.44
2022-12-07T23:39:22.344Z,6.39
2022-12-07T23:41:50.100Z,6.41
2022-12-07T23:44:19.030Z,6.41
2022-12-07T23:46:48.513Z,6.46
2022-12-07T23:49:16.282Z,6.51
2022-12-07T23:51:44.289Z,6.44
2022-12-07T23:54:12.645Z,6.43
2022-12-07T23:56:40.663Z,6.45
2022-12-07T23:59:08.411Z,6.41
